Time;durP1;ratioP1;P1;durP2;ratioP2;P2;SDS_P1;SDS_P2;PMS_P1;PMS_P2;Temp;Humidity;BMP_temperature;BMP_pressure;BME280_temperature;BME280_humidity;BME280_pressure;Samples;Min_cycle;Max_cycle;Signal;HPM_P1;HPM_P2
2021/04/01 00:02:05;;;;;;;9.03;4.70;;;7.60;54.60;;;;;;4344445;32;20070;-36
2021/04/01 00:04:31;;;;;;;8.23;5.17;;;7.60;54.70;;;;;;4343937;32;20078;-38
2021/04/01 00:06:57;;;;;;;9.33;5.93;;;7.70;54.70;;;;;;4344112;32;20152;-37
2021/04/01 00:09:24;;;;;;;9.90;6.40;;;7.60;54.80;;;;;;4343915;33;20087;-38
2021/04/01 00:11:50;;;;;;;9.63;5.53;;;7.60;55.10;;;;;;4344151;32;20067;-38
2021/04/01 00:14:20;;;;;;;11.30;7.10;;;7.50;55.20;;;;;;4344690;32;20062;-38
2021/04/01 00:16:46;;;;;;;9.50;5.87;;;7.50;55.40;;;;;;4344512;32;20527;-37
2021/04/01 00:19:13;;;;;;;12.93;6.10;;;7.50;55.50;;;;;;4344650;32;20100;-38
2021/04/01 00:21:40;;;;;;;12.30;6.67;;;7.50;55.50;;;;;;4344364;32;20059;-38
2021/04/01 00:24:07;;;;;;;10.53;5.73;;;7.50;55.50;;;;;;4344263;33;20179;-37
2021/04/01 00:26:33;;;;;;;10.77;6.30;;;7.50;55.80;;;;;;4342577;33;20069;-38
2021/04/01 00:29:00;;;;;;;11.67;7.00;;;7.50;55.90;;;;;;4344139;32;20066;-37
2021/04/01 00:31:26;;;;;;;11.37;6.20;;;7.50;55.80;;;;;;4343982;32;20176;-36
2021/04/01 00:33:53;;;;;;;8.77;5.23;;;7.50;55.80;;;;;;4342634;33;20079;-36
2021/04/01 00:36:19;;;;;;;8.83;6.23;;;7.60;55.70;;;;;;4355153;32;20157;-37
2021/04/01 00:38:46;;;;;;;10.47;6.50;;;7.60;55.50;;;;;;4359304;32;20078;-38
2021/04/01 00:41:12;;;;;;;11.00;5.60;;;7.70;55.90;;;;;;4359064;32;20071;-37
2021/04/01 00:43:39;;;;;;;7.17;4.90;;;7.70;55.20;;;;;;4358724;32;20528;-37
2021/04/01 00:46:05;;;;;;;9.70;5.43;;;7.70;55.20;;;;;;4344384;32;20074;-36
2021/04/01 00:48:31;;;;;;;10.20;6.37;;;7.70;55.20;;;;;;4358433;32;20062;-37
2021/04/01 00:50:58;;;;;;;10.60;6.10;;;7.70;55.00;;;;;;4356675;32;20543;-37
2021/04/01 00:53:24;;;;;;;12.90;7.03;;;7.70;55.10;;;;;;4356944;32;20062;-37
2021/04/01 00:55:51;;;;;;;10.43;6.43;;;7.80;55.10;;;;;;4358440;32;20062;-37
2021/04/01 00:58:17;;;;;;;10.13;6.87;;;7.80;55.00;;;;;;4356747;32;20108;-38
2021/04/01 01:00:44;;;;;;;9.33;6.40;;;7.70;55.10;;;;;;4356662;32;20062;-37
2021/04/01 01:03:10;;;;;;;7.77;5.17;;;7.80;55.10;;;;;;4357923;32;20066;-37
2021/04/01 01:05:37;;;;;;;13.63;7.47;;;7.80;55.00;;;;;;4356601;32;20103;-37
2021/04/01 01:08:04;;;;;;;9.77;6.67;;;7.80;55.00;;;;;;4358536;32;20533;-37
2021/04/01 01:10:31;;;;;;;11.60;6.67;;;7.80;55.10;;;;;;4358570;32;20062;-37
2021/04/01 01:12:59;;;;;;;10.43;4.93;;;7.80;55.00;;;;;;4358020;32;20077;-37
2021/04/01 01:15:26;;;;;;;12.57;6.13;;;7.90;55.00;;;;;;4356849;32;20173;-38
2021/04/01 01:17:54;;;;;;;10.27;5.93;;;7.90;54.80;;;;;;4356712;32;20081;-37
2021/04/01 01:20:25;;;;;;;11.80;6.30;;;7.90;54.60;;;;;;4358302;32;20133;-37
2021/04/01 01:22:52;;;;;;;25.53;5.20;;;8.00;54.60;;;;;;4358764;32;20050;-37
2021/04/01 01:25:20;;;;;;;16.30;6.70;;;8.00;54.50;;;;;;4356983;32;20065;-36
2021/04/01 01:27:47;;;;;;;10.70;6.03;;;8.00;54.30;;;;;;4358290;32;20120;-35
2021/04/01 01:30:17;;;;;;;11.83;6.10;;;8.10;54.20;;;;;;4344497;32;20530;-36
2021/04/01 01:32:45;;;;;;;13.87;6.10;;;8.10;54.10;;;;;;4358089;32;20109;-38
2021/04/01 01:35:20;;;;;;;9.47;4.87;;;8.10;54.10;;;;;;4352211;32;20071;-37
2021/04/01 01:37:54;;;;;;;8.57;5.18;;;8.10;54.10;;;;;;4341537;33;20086;-38
2021/04/01 01:40:22;;;;;;;12.40;6.30;;;8.10;54.10;;;;;;4345511;32;20063;-37
2021/04/01 01:42:50;;;;;;;8.67;5.50;;;8.10;54.30;;;;;;4344628;33;20070;-37
2021/04/01 01:45:17;;;;;;;11.03;7.80;;;8.10;54.10;;;;;;4346207;32;20122;-37
2021/04/01 01:47:43;;;;;;;22.50;7.83;;;8.10;54.00;;;;;;4344770;33;20199;-37
2021/04/01 01:50:11;;;;;;;13.40;7.27;;;8.10;54.30;;;;;;4345990;32;20146;-37
2021/04/01 01:52:39;;;;;;;8.80;5.73;;;8.00;54.40;;;;;;4346271;32;20098;-38
2021/04/01 01:55:07;;;;;;;8.67;6.30;;;8.00;54.30;;;;;;4332136;33;20062;-36
2021/04/01 01:57:35;;;;;;;11.47;6.63;;;8.00;54.30;;;;;;4345911;32;20055;-35
2021/04/01 02:00:04;;;;;;;9.40;6.53;;;8.00;54.30;;;;;;4345883;32;20151;-38
2021/04/01 02:02:31;;;;;;;9.37;5.73;;;8.00;54.50;;;;;;4344393;33;20067;-37
2021/04/01 02:04:57;;;;;;;10.80;6.33;;;7.90;54.60;;;;;;4328487;33;20098;-35
2021/04/01 02:07:24;;;;;;;9.53;5.93;;;8.00;54.60;;;;;;4328591;33;20066;-35
2021/04/01 02:09:50;;;;;;;10.47;5.10;;;8.00;54.50;;;;;;4316856;33;20072;-36
2021/04/01 02:12:17;;;;;;;10.13;7.23;;;8.00;54.60;;;;;;4316239;33;20126;-36
2021/04/01 02:14:44;;;;;;;11.13;6.73;;;8.00;54.50;;;;;;4316754;33;20102;-37
2021/04/01 02:17:17;;;;;;;9.70;6.17;;;8.00;54.30;;;;;;4328661;33;20075;-37
2021/04/01 02:19:43;;;;;;;8.77;6.83;;;8.10;54.30;;;;;;4317311;33;20070;-37
2021/04/01 02:22:10;;;;;;;10.37;6.40;;;8.10;54.30;;;;;;4328373;33;20055;-37
2021/04/01 02:24:36;;;;;;;11.77;5.60;;;8.10;54.30;;;;;;4328348;33;20545;-37
2021/04/01 02:27:03;;;;;;;15.40;6.43;;;8.00;54.50;;;;;;4328066;33;20142;-37
2021/04/01 02:29:30;;;;;;;12.93;7.33;;;8.10;54.50;;;;;;4316144;33;20105;-36
2021/04/01 02:31:56;;;;;;;12.73;7.47;;;8.10;54.40;;;;;;4328427;33;20107;-36
2021/04/01 02:34:22;;;;;;;11.40;7.10;;;8.10;54.20;;;;;;4316264;33;20071;-36
2021/04/01 02:36:49;;;;;;;12.13;7.17;;;8.10;54.40;;;;;;4330336;33;20071;-35
2021/04/01 02:39:16;;;;;;;14.80;7.43;;;8.00;54.70;;;;;;4313367;33;20172;-36
2021/04/01 02:41:42;;;;;;;11.47;6.13;;;8.00;54.60;;;;;;4316489;33;20067;-36
2021/04/01 02:44:09;;;;;;;9.40;6.00;;;8.00;54.60;;;;;;4327733;33;20183;-36
2021/04/01 02:46:35;;;;;;;11.73;6.57;;;8.10;54.50;;;;;;4315959;33;20071;-36
2021/04/01 02:49:02;;;;;;;10.00;7.53;;;8.10;54.40;;;;;;4328370;33;20650;-37
2021/04/01 02:51:28;;;;;;;12.60;6.20;;;8.10;54.50;;;;;;4328014;33;20090;-37
2021/04/01 02:53:54;;;;;;;12.43;7.30;;;8.10;54.60;;;;;;4327871;33;20073;-36
2021/04/01 02:56:21;;;;;;;10.23;6.20;;;8.10;54.60;;;;;;4315992;33;20063;-37
2021/04/01 02:58:47;;;;;;;10.60;7.57;;;8.10;54.60;;;;;;4327902;33;20333;-37
2021/04/01 03:01:14;;;;;;;14.10;7.17;;;8.10;54.40;;;;;;4298574;33;20594;-36
2021/04/01 03:03:46;;;;;;;12.83;8.97;;;8.20;54.40;;;;;;4298540;33;20067;-36
2021/04/01 03:06:13;;;;;;;8.03;5.83;;;8.10;54.40;;;;;;4286629;33;20154;-37
2021/04/01 03:08:39;;;;;;;14.10;7.77;;;8.10;54.40;;;;;;4286714;33;20071;-37
2021/04/01 03:11:07;;;;;;;9.93;7.67;;;8.10;54.60;;;;;;4286595;33;20059;-37
2021/04/01 03:13:34;;;;;;;11.60;8.30;;;8.00;54.70;;;;;;4286518;33;20090;-37
2021/04/01 03:16:00;;;;;;;12.13;7.87;;;8.00;54.90;;;;;;4301300;33;20070;-37
2021/04/01 03:18:27;;;;;;;11.63;7.73;;;8.00;54.80;;;;;;4300644;33;20147;-36
2021/04/01 03:20:53;;;;;;;12.10;7.67;;;8.00;54.80;;;;;;4313140;33;20108;-36
2021/04/01 03:23:20;;;;;;;12.63;6.80;;;8.00;54.80;;;;;;4313323;33;20091;-37
2021/04/01 03:25:46;;;;;;;12.97;6.90;;;8.00;54.90;;;;;;4300727;33;20096;-37
2021/04/01 03:28:13;;;;;;;9.50;5.67;;;8.00;55.00;;;;;;4312948;33;20052;-36
2021/04/01 03:33:25;;;;;;;9.43;6.12;;;8.00;54.90;;;;;;4344654;33;20518;-37
2021/04/01 03:35:51;;;;;;;14.77;7.90;;;8.00;54.90;;;;;;4352919;32;20074;-38
2021/04/01 03:38:18;;;;;;;9.10;6.30;;;8.00;54.90;;;;;;4358066;32;20098;-37
2021/04/01 03:40:46;;;;;;;12.47;7.07;;;8.00;55.00;;;;;;4359260;32;20074;-37
2021/04/01 03:43:13;;;;;;;14.87;7.77;;;8.00;55.10;;;;;;4359708;32;20058;-36
2021/04/01 03:45:39;;;;;;;10.40;6.97;;;8.00;55.00;;;;;;4359173;32;20473;-37
2021/04/01 03:48:07;;;;;;;18.07;5.77;;;8.10;54.90;;;;;;4359548;32;20499;-37
2021/04/01 03:50:34;;;;;;;9.83;7.07;;;8.10;54.80;;;;;;4359488;32;20486;-37
2021/04/01 03:53:00;;;;;;;14.80;7.90;;;8.10;54.60;;;;;;4359366;32;20078;-36
2021/04/01 03:55:40;;;;;;;11.57;7.97;;;8.10;54.60;;;;;;4358159;32;20069;-37
2021/04/01 03:58:32;;;;;;;13.67;7.03;;;8.10;54.60;;;;;;4347097;32;20062;-37
2021/04/01 04:12:08;;;;;;;10.13;6.73;;;8.00;54.70;;;;;;4358857;32;20486;-37
2021/04/01 04:14:32;;;;;;;9.93;5.63;;;8.00;54.80;;;;;;4358890;32;20070;-38
2021/04/01 04:16:59;;;;;;;11.67;7.43;;;7.90;54.90;;;;;;4357788;32;20181;-38
2021/04/01 04:19:25;;;;;;;10.23;6.63;;;7.90;55.30;;;;;;4359373;32;20544;-36
2021/04/01 04:21:52;;;;;;;18.47;8.30;;;7.90;55.50;;;;;;4357756;32;20181;-36
2021/04/01 04:24:18;;;;;;;11.07;4.50;;;7.90;55.50;;;;;;4358801;32;20505;-37
2021/04/01 04:26:44;;;;;;;10.53;7.60;;;7.90;55.60;;;;;;4358314;32;20058;-38
2021/04/01 04:29:11;;;;;;;15.53;7.90;;;7.90;55.40;;;;;;4358403;32;20069;-37
2021/04/01 04:31:38;;;;;;;13.13;6.60;;;7.90;55.60;;;;;;4358412;32;20628;-38
2021/04/01 04:34:04;;;;;;;9.50;6.37;;;7.90;55.40;;;;;;4358622;32;20167;-37
2021/04/01 04:36:31;;;;;;;12.73;7.63;;;7.90;55.30;;;;;;4346296;32;20508;-37
2021/04/01 04:38:57;;;;;;;10.57;7.40;;;8.00;55.40;;;;;;4343960;33;20502;-37
2021/04/01 04:41:23;;;;;;;13.27;7.17;;;8.00;55.40;;;;;;4343966;33;20139;-36
2021/04/01 04:43:50;;;;;;;12.07;7.37;;;7.90;55.40;;;;;;4343308;33;20075;-38
2021/04/01 04:46:16;;;;;;;16.63;7.60;;;7.90;55.50;;;;;;4343354;33;20174;-36
2021/04/01 04:48:43;;;;;;;13.07;8.70;;;7.90;55.50;;;;;;4343415;33;20058;-36
2021/04/01 04:51:09;;;;;;;14.57;7.40;;;7.90;56.30;;;;;;4343680;33;20079;-36
2021/04/01 04:53:36;;;;;;;9.70;7.30;;;8.00;55.70;;;;;;4343504;33;20075;-37
2021/04/01 04:56:15;;;;;;;11.17;6.70;;;8.00;55.50;;;;;;4343337;33;20067;-36
2021/04/01 04:58:49;;;;;;;8.77;5.80;;;8.00;55.30;;;;;;4343168;33;20539;-36
2021/04/01 05:09:18;;;;;;;9.02;6.75;;;8.00;55.50;;;;;;4343350;33;20142;-37
2021/04/01 05:11:44;;;;;;;11.63;7.07;;;8.00;55.60;;;;;;4329386;33;20146;-37
2021/04/01 05:14:11;;;;;;;11.27;7.00;;;8.00;55.60;;;;;;4342571;33;20064;-37
2021/04/01 05:16:37;;;;;;;10.17;6.50;;;8.10;55.40;;;;;;4343186;33;20051;-37
2021/04/01 05:19:06;;;;;;;10.63;7.03;;;8.10;55.40;;;;;;4343043;33;20082;-37
2021/04/01 05:21:36;;;;;;;8.43;6.10;;;8.10;55.20;;;;;;4341757;33;20054;-37
2021/04/01 05:24:06;;;;;;;11.53;6.20;;;8.10;55.30;;;;;;4343321;33;20436;-36
2021/04/01 05:29:03;;;;;;;7.33;5.37;;;8.10;55.70;;;;;;4343198;33;20086;-37
2021/04/01 05:31:34;;;;;;;9.03;4.83;;;8.00;55.60;;;;;;4342185;33;20167;-37
2021/04/01 05:34:00;;;;;;;10.50;6.67;;;8.00;55.60;;;;;;4343199;33;20149;-38
2021/04/01 05:36:28;;;;;;;12.10;6.77;;;8.00;55.70;;;;;;4355216;32;20066;-35
2021/04/01 05:38:57;;;;;;;9.20;6.10;;;8.00;55.70;;;;;;4357762;32;20064;-37
2021/04/01 05:41:26;;;;;;;9.93;6.70;;;8.10;55.70;;;;;;4357867;32;20086;-36
2021/04/01 05:49:37;;;;;;;8.23;5.53;;;8.30;54.70;;;;;;4311140;33;20165;-36
2021/04/01 05:57:48;;;;;;;8.13;5.33;;;8.40;54.10;;;;;;4290522;33;20119;-37
2021/04/01 06:06:13;;;;;;;8.37;6.57;;;8.50;53.90;;;;;;4295570;33;20116;-37
2021/04/01 06:08:49;;;;;;;7.73;5.33;;;8.50;54.30;;;;;;4311119;33;20563;-35
2021/04/01 06:11:18;;;;;;;10.43;5.63;;;8.40;54.40;;;;;;4311309;33;20643;-37
2021/04/01 06:14:11;;;;;;;8.53;6.23;;;8.50;54.30;;;;;;4311036;33;20167;-36
2021/04/01 06:16:44;;;;;;;9.33;5.67;;;8.40;54.50;;;;;;4311322;33;20199;-36
2021/04/01 06:19:13;;;;;;;8.60;5.60;;;8.40;54.60;;;;;;4310857;33;20094;-39
2021/04/01 06:21:48;;;;;;;6.53;4.50;;;8.40;54.60;;;;;;4303096;33;20596;-36
2021/04/01 06:24:28;;;;;;;9.63;6.25;;;8.40;54.60;;;;;;4340547;33;20141;-37
2021/04/01 06:27:02;;;;;;;8.60;5.47;;;8.40;54.90;;;;;;4343439;33;20081;-37
2021/04/01 06:29:31;;;;;;;8.37;4.47;;;8.40;54.80;;;;;;4331482;33;20163;-37
2021/04/01 06:32:01;;;;;;;8.43;6.03;;;8.40;54.40;;;;;;4342882;33;20165;-37
2021/04/01 06:34:34;;;;;;;9.73;5.80;;;8.40;54.30;;;;;;4343558;33;20586;-41
2021/04/01 06:37:01;;;;;;;8.73;5.43;;;8.50;54.20;;;;;;4329255;33;20079;-37
2021/04/01 06:39:27;;;;;;;11.00;5.47;;;8.50;54.20;;;;;;4316105;33;20579;-37
2021/04/01 06:42:20;;;;;;;9.97;5.50;;;8.50;54.10;;;;;;4328452;33;20058;-38
2021/04/01 06:45:08;;;;;;;9.20;6.72;;;8.50;54.10;;;;;;4316273;33;20079;-37
2021/04/01 06:47:35;;;;;;;7.70;5.90;;;8.50;53.90;;;;;;4328686;33;20071;-36
2021/04/01 06:52:44;;;;;;;10.20;6.17;;;8.60;53.90;;;;;;4328684;33;20063;-36
2021/04/01 07:03:28;;;;;;;11.03;6.50;;;8.90;53.20;;;;;;4345448;32;20088;-37
2021/04/01 07:08:43;;;;;;;17.73;6.05;;;9.10;52.60;;;;;;4327960;33;20083;-36
2021/04/01 07:11:33;;;;;;;11.25;5.10;;;9.20;52.10;;;;;;4316712;33;20587;-38
2021/04/01 07:14:07;;;;;;;14.60;6.87;;;9.30;52.10;;;;;;4327280;33;20605;-36
2021/04/01 07:16:46;;;;;;;15.73;6.65;;;9.30;51.70;;;;;;4315903;33;20161;-37
2021/04/01 07:19:27;;;;;;;15.57;5.82;;;9.30;51.60;;;;;;4327698;33;20083;-37
2021/04/01 07:45:21;;;;;;;8.98;5.57;;;9.40;51.40;;;;;;4344309;33;20617;-37
2021/04/01 07:47:55;;;;;;;9.45;5.97;;;9.40;51.50;;;;;;4343193;33;20185;-37
2021/04/01 07:50:24;;;;;;;8.47;5.20;;;9.40;51.50;;;;;;4331315;33;20134;-37
2021/04/01 07:52:52;;;;;;;15.25;5.82;;;9.30;51.60;;;;;;4331299;33;20082;-37
2021/04/01 07:55:27;;;;;;;6.45;3.92;;;9.30;51.40;;;;;;4312643;33;20163;-40
2021/04/01 08:01:06;;;;;;;8.93;5.93;;;9.40;51.20;;;;;;4313277;33;19978;-36
2021/04/01 08:06:23;;;;;;;14.85;4.68;;;9.40;51.40;;;;;;4301501;33;20622;-38
2021/04/01 08:08:50;;;;;;;14.38;6.87;;;9.30;51.60;;;;;;4312598;33;20103;-37
2021/04/01 08:11:31;;;;;;;18.00;5.80;;;9.40;51.50;;;;;;4312478;33;20574;-37
2021/04/01 08:14:21;;;;;;;7.30;4.28;;;9.40;51.30;;;;;;4312142;33;20072;-37
2021/04/01 08:19:38;;;;;;;11.23;4.03;;;9.50;51.30;;;;;;4312298;33;20121;-36
2021/04/01 08:22:18;;;;;;;10.80;5.28;;;9.50;50.90;;;;;;4300150;33;20169;-37
2021/04/01 08:24:51;;;;;;;11.57;6.07;;;9.60;50.80;;;;;;4301631;33;20174;-36
2021/04/01 08:35:14;;;;;;;8.80;5.73;;;9.60;50.60;;;;;;4349121;32;20081;-37
2021/04/01 08:38:25;;;;;;;11.07;5.97;;;9.70;50.40;;;;;;4358429;32;20080;-36
2021/04/01 08:40:32;;;;;;;9.93;5.17;;;9.70;50.40;;;;;;4352203;32;20190;-36
2021/04/01 08:43:10;;;;;;;11.57;5.27;;;9.80;50.50;;;;;;4358398;32;20159;-36
2021/04/01 08:45:54;;;;;;;10.00;5.12;;;9.80;50.20;;;;;;4358731;32;20144;-38
2021/04/01 08:48:42;;;;;;;8.85;4.97;;;9.90;50.10;;;;;;4356714;32;20535;-37
2021/04/01 08:51:08;;;;;;;16.23;6.97;;;9.90;50.00;;;;;;4358257;32;20163;-37
2021/04/01 08:54:27;;;;;;;16.70;5.50;;;9.80;50.00;;;;;;4358436;32;20097;-36
2021/04/01 08:57:41;;;;;;;8.15;5.28;;;9.80;50.20;;;;;;4336431;32;20082;-37
2021/04/01 09:00:12;;;;;;;14.93;5.30;;;9.80;49.90;;;;;;4326735;32;20676;-36
2021/04/01 09:02:39;;;;;;;10.52;5.70;;;9.80;50.10;;;;;;4356720;32;20138;-37
2021/04/01 09:05:08;;;;;;;9.27;5.77;;;9.80;50.30;;;;;;4344777;32;20086;-37
2021/04/01 09:07:59;;;;;;;17.27;5.60;;;9.80;50.20;;;;;;4358295;32;20071;-36
2021/04/01 09:10:40;;;;;;;11.65;5.32;;;9.70;50.50;;;;;;4358185;32;20062;-37
2021/04/01 09:13:13;;;;;;;8.43;4.78;;;9.80;50.60;;;;;;4346295;32;20070;-36
2021/04/01 09:15:57;;;;;;;9.40;5.18;;;9.90;50.30;;;;;;4345505;32;20082;-36
2021/04/01 09:18:26;;;;;;;8.98;6.50;;;10.00;50.30;;;;;;4356922;32;20477;-37
2021/04/01 09:20:54;;;;;;;7.47;4.37;;;10.10;49.90;;;;;;4358781;32;20149;-37
2021/04/01 09:23:21;;;;;;;11.98;4.95;;;10.10;49.70;;;;;;4357059;32;20074;-38
2021/04/01 09:25:51;;;;;;;11.85;5.32;;;10.20;49.50;;;;;;4357009;32;20085;-37
2021/04/01 09:28:17;;;;;;;7.45;5.07;;;10.30;49.20;;;;;;4356752;32;20090;-37
2021/04/01 09:30:44;;;;;;;8.77;6.25;;;10.40;48.80;;;;;;4357081;32;20575;-36
2021/04/01 09:33:25;;;;;;;10.77;6.47;;;10.40;48.80;;;;;;4356646;32;20051;-37
2021/04/01 09:35:52;;;;;;;12.40;5.45;;;10.30;48.80;;;;;;4349867;32;20499;-38
2021/04/01 09:38:19;;;;;;;17.17;7.70;;;10.30;48.80;;;;;;4341659;33;20475;-38
2021/04/01 09:40:48;;;;;;;25.70;5.95;;;10.30;48.90;;;;;;4343895;33;20097;-37
2021/04/01 09:43:18;;;;;;;14.77;6.00;;;10.40;48.90;;;;;;4341733;33;20135;-37
2021/04/01 09:45:49;;;;;;;10.27;5.72;;;10.40;48.70;;;;;;4342161;33;20090;-37
2021/04/01 09:48:17;;;;;;;7.15;3.97;;;10.40;48.60;;;;;;4342333;33;20172;-37
2021/04/01 09:50:45;;;;;;;9.98;4.82;;;10.40;48.70;;;;;;4330221;33;20106;-37
2021/04/01 09:53:23;;;;;;;10.10;4.60;;;10.30;49.10;;;;;;4343251;33;20179;-37
2021/04/01 09:55:58;;;;;;;6.32;3.95;;;10.30;48.50;;;;;;4343274;33;20087;-38
2021/04/01 09:58:28;;;;;;;;;;;10.30;48.60;;;;;;4342195;33;20070;-38
2021/04/01 10:01:30;;;;;;;9.95;5.10;;;10.40;48.40;;;;;;4327816;33;20001;-37
2021/04/01 10:04:20;;;;;;;9.65;4.50;;;10.40;48.40;;;;;;4328866;33;20083;-37
2021/04/01 10:06:51;;;;;;;8.48;5.45;;;10.30;48.50;;;;;;4329211;33;20579;-37
2021/04/01 10:09:20;;;;;;;8.90;5.15;;;10.20;48.60;;;;;;4329321;33;20149;-37
2021/04/01 10:11:57;;;;;;;8.98;5.45;;;10.20;48.90;;;;;;4329030;33;20079;-37
2021/04/01 10:14:24;;;;;;;6.60;4.40;;;10.10;49.10;;;;;;4328372;33;20066;-36
2021/04/01 10:16:58;;;;;;;9.65;4.68;;;10.10;49.10;;;;;;4317015;33;20071;-38
2021/04/01 10:19:49;;;;;;;6.28;3.78;;;10.10;49.30;;;;;;4317121;33;20071;-36
2021/04/01 10:22:31;;;;;;;9.65;5.45;;;10.10;49.20;;;;;;4329072;33;20074;-36
2021/04/01 10:25:27;;;;;;;7.00;4.85;;;10.10;49.20;;;;;;4328563;33;20074;-36
2021/04/01 10:28:06;;;;;;;13.25;3.55;;;10.20;49.10;;;;;;4318820;33;20621;-37
2021/04/01 10:30:34;;;;;;;6.07;3.70;;;10.10;49.20;;;;;;4328450;33;20072;-37
2021/04/01 10:33:17;;;;;;;9.07;4.97;;;10.00;49.20;;;;;;4342506;33;20087;-37
2021/04/01 10:35:44;;;;;;;5.95;5.28;;;10.00;49.20;;;;;;4353211;32;20551;-38
2021/04/01 10:38:12;;;;;;;10.20;6.35;;;10.10;49.20;;;;;;4346550;32;20508;-38
2021/04/01 10:40:39;;;;;;;11.50;4.40;;;10.00;49.30;;;;;;4347034;32;20071;-37
2021/04/01 10:43:10;;;;;;;10.70;4.25;;;10.00;49.30;;;;;;4360327;32;20082;-38
2021/04/01 10:45:39;;;;;;;8.90;4.20;;;10.00;49.40;;;;;;4360477;32;20065;-38
2021/04/01 10:48:36;;;;;;;6.12;5.25;;;10.00;49.40;;;;;;4360833;32;20058;-37
2021/04/01 10:51:07;;;;;;;8.50;4.80;;;10.00;49.50;;;;;;4358942;32;20073;-36
2021/04/01 10:53:39;;;;;;;12.30;4.43;;;10.00;49.50;;;;;;4358796;32;20563;-36
2021/04/01 10:56:08;;;;;;;8.02;5.50;;;10.00;49.50;;;;;;4360408;32;20070;-37
2021/04/01 10:58:35;;;;;;;7.55;4.68;;;10.00;49.40;;;;;;4360822;32;20157;-36
2021/04/01 11:01:04;;;;;;;8.93;4.90;;;10.00;49.70;;;;;;4346716;32;20063;-36
2021/04/01 11:03:36;;;;;;;6.23;4.43;;;10.10;49.30;;;;;;4360332;32;20070;-36
2021/04/01 11:06:03;;;;;;;9.57;5.68;;;10.20;49.20;;;;;;4358748;32;20514;-36
2021/04/01 11:08:36;;;;;;;11.43;5.20;;;10.10;49.10;;;;;;4359417;32;20062;-38
2021/04/01 11:11:03;;;;;;;10.48;5.53;;;10.10;49.20;;;;;;4360042;32;20065;-38
2021/04/01 11:13:34;;;;;;;8.63;5.80;;;10.10;49.30;;;;;;4359467;32;20156;-37
2021/04/01 11:16:04;;;;;;;8.32;4.37;;;10.10;49.20;;;;;;4358530;32;20055;-37
2021/04/01 11:18:31;;;;;;;13.68;4.97;;;10.00;49.20;;;;;;4360222;32;20062;-37
2021/04/01 11:20:57;;;;;;;26.80;6.20;;;10.00;49.30;;;;;;4345930;32;20074;-36
2021/04/01 11:23:26;;;;;;;7.65;4.90;;;10.00;49.60;;;;;;4346392;32;20102;-38
2021/04/01 11:25:54;;;;;;;9.63;4.55;;;10.00;49.60;;;;;;4359787;32;20075;-38
2021/04/01 11:28:38;;;;;;;7.87;5.45;;;10.00;49.60;;;;;;4360251;32;20164;-36
2021/04/01 11:31:09;;;;;;;8.13;4.70;;;9.90;49.80;;;;;;4359792;32;20538;-38
2021/04/01 11:33:39;;;;;;;19.85;5.68;;;10.00;49.80;;;;;;4359516;32;20062;-37
2021/04/01 11:36:16;;;;;;;13.55;5.50;;;10.00;49.80;;;;;;4348346;32;20516;-37
2021/04/01 11:38:46;;;;;;;7.03;4.53;;;10.00;49.80;;;;;;4344843;32;20068;-37
2021/04/01 11:41:18;;;;;;;10.45;5.07;;;10.00;49.70;;;;;;4344500;32;20595;-37
2021/04/01 11:43:48;;;;;;;8.13;4.43;;;10.00;49.60;;;;;;4344341;32;20490;-37
2021/04/01 11:46:25;;;;;;;12.70;4.95;;;10.20;49.60;;;;;;4343151;33;20600;-38
2021/04/01 11:48:52;;;;;;;9.02;5.28;;;10.20;49.20;;;;;;4343028;33;20089;-38
2021/04/01 11:51:34;;;;;;;13.00;6.30;;;10.30;49.20;;;;;;4343391;33;20217;-37
2021/04/01 11:54:02;;;;;;;7.37;4.57;;;10.30;49.00;;;;;;4344405;32;20475;-37
2021/04/01 11:56:42;;;;;;;9.20;5.68;;;10.40;48.80;;;;;;4326846;33;20063;-37
2021/04/01 11:59:13;;;;;;;12.63;5.97;;;10.40;48.90;;;;;;4326749;33;20472;-37
2021/04/01 12:02:03;;;;;;;8.38;5.47;;;10.50;48.90;;;;;;4327179;33;20063;-38
2021/04/01 12:04:32;;;;;;;9.95;5.20;;;10.50;49.00;;;;;;4327081;33;20071;-36
2021/04/01 12:06:59;;;;;;;10.75;4.03;;;10.40;48.90;;;;;;4315344;33;20067;-37
2021/04/01 12:09:28;;;;;;;6.60;4.47;;;10.40;49.00;;;;;;4327793;33;20163;-40
2021/04/01 12:11:55;;;;;;;11.10;5.72;;;10.40;49.00;;;;;;4327599;33;20562;-38
2021/04/01 12:14:34;;;;;;;10.77;6.45;;;10.40;49.00;;;;;;4328017;33;20312;-36
2021/04/01 12:17:02;;;;;;;9.52;4.87;;;10.30;49.20;;;;;;4327340;33;20063;-37
2021/04/01 12:19:28;;;;;;;5.68;4.60;;;10.30;49.20;;;;;;4326364;33;20483;-37
2021/04/01 12:21:55;;;;;;;9.90;5.87;;;10.30;49.30;;;;;;4326907;33;20157;-38
2021/04/01 12:24:21;;;;;;;10.23;5.32;;;10.30;49.40;;;;;;4326363;33;20575;-37
2021/04/01 12:26:49;;;;;;;9.15;5.18;;;10.20;49.60;;;;;;4330066;33;20534;-38
2021/04/01 12:29:16;;;;;;;7.65;5.20;;;10.20;49.80;;;;;;4343900;32;20067;-37
2021/04/01 12:31:47;;;;;;;8.07;5.68;;;10.20;49.80;;;;;;4343615;32;20097;-37
2021/04/01 12:34:31;;;;;;;10.55;5.12;;;10.20;50.00;;;;;;4326677;33;20071;-38
2021/04/01 12:37:04;;;;;;;9.68;5.22;;;10.10;50.10;;;;;;4326823;33;20540;-36
2021/04/01 12:39:35;;;;;;;7.62;5.95;;;10.10;50.30;;;;;;4285632;33;20218;-37
2021/04/01 12:42:02;;;;;;;9.30;4.83;;;10.10;50.40;;;;;;4297136;33;20095;-37
2021/04/01 12:44:38;;;;;;;9.82;6.68;;;10.10;50.40;;;;;;4297169;33;20099;-37
2021/04/01 12:47:05;;;;;;;7.55;5.68;;;10.10;50.40;;;;;;4297271;33;20154;-38
2021/04/01 12:49:33;;;;;;;8.75;5.75;;;10.10;50.40;;;;;;4297647;33;20095;-37
2021/04/01 12:52:03;;;;;;;8.13;6.35;;;10.10;50.40;;;;;;4297641;33;20173;-37
2021/04/01 12:54:39;;;;;;;12.05;6.37;;;10.20;50.50;;;;;;4297286;33;20076;-37
2021/04/01 12:57:09;;;;;;;9.35;6.25;;;10.20;50.50;;;;;;4297181;33;20147;-38
2021/04/01 12:59:42;;;;;;;7.72;6.28;;;10.20;50.50;;;;;;4297397;33;20071;-37
2021/04/01 13:04:38;;;;;;;10.80;5.93;;;10.30;50.50;;;;;;4297420;33;20063;-37
2021/04/01 13:07:21;;;;;;;9.88;6.25;;;10.20;50.50;;;;;;4296890;33;20240;-37
2021/04/01 13:12:33;;;;;;;13.15;6.82;;;10.30;50.40;;;;;;4308512;33;20099;-38
2021/04/01 13:14:59;;;;;;;11.43;6.30;;;10.30;50.50;;;;;;4311349;33;20068;-36
2021/04/01 13:17:27;;;;;;;9.25;5.60;;;10.30;50.50;;;;;;4332124;33;20082;-38
2021/04/01 13:19:53;;;;;;;15.40;6.35;;;10.30;50.70;;;;;;4340827;33;20118;-37
2021/04/01 13:22:25;;;;;;;10.50;6.03;;;10.20;50.70;;;;;;4340935;33;20607;-38
2021/04/01 13:27:20;;;;;;;10.23;6.82;;;10.20;51.10;;;;;;4340578;33;20074;-36
2021/04/01 13:29:53;;;;;;;14.13;6.45;;;10.10;51.20;;;;;;4340791;33;20200;-39
2021/04/01 13:32:40;;;;;;;10.52;7.25;;;10.10;51.30;;;;;;4340989;33;20107;-37
2021/04/01 13:35:18;;;;;;;8.45;5.93;;;10.10;51.50;;;;;;4340050;33;20066;-37
2021/04/01 13:38:28;;;;;;;13.70;6.65;;;10.00;51.50;;;;;;4329630;33;20157;-38
2021/04/01 13:40:41;;;;;;;12.25;7.20;;;10.10;51.60;;;;;;4340104;33;20078;-38
2021/04/01 13:43:09;;;;;;;8.82;5.97;;;10.00;51.70;;;;;;4331219;33;20393;-38
2021/04/01 13:45:37;;;;;;;9.43;5.85;;;10.00;51.80;;;;;;4343657;32;20067;-37
2021/04/01 13:48:08;;;;;;;10.40;7.43;;;10.00;51.90;;;;;;4329887;33;20067;-36
2021/04/01 13:50:38;;;;;;;13.30;7.12;;;10.00;52.00;;;;;;4343239;32;20065;-38
2021/04/01 13:53:21;;;;;;;8.77;7.07;;;10.00;51.90;;;;;;4343080;32;20569;-37
2021/04/01 13:55:52;;;;;;;12.30;7.37;;;10.00;52.10;;;;;;4342682;32;20087;-38
2021/04/01 13:58:58;;;;;;;8.60;7.07;;;9.90;52.20;;;;;;4342657;33;20611;-37
2021/04/01 14:09:35;;;;;;;12.93;6.75;;;9.90;52.30;;;;;;4342980;33;20542;-38
2021/04/01 14:12:07;;;;;;;10.43;8.53;;;9.80;52.30;;;;;;4341623;33;20166;-38
2021/04/01 14:14:35;;;;;;;14.53;8.53;;;9.80;52.70;;;;;;4341429;33;20582;-37
2021/04/01 14:17:04;;;;;;;10.70;8.80;;;9.70;52.70;;;;;;4342945;32;20553;-36
2021/04/01 14:19:30;;;;;;;11.68;8.55;;;9.70;52.70;;;;;;4341486;33;20512;-38
2021/04/01 14:22:01;;;;;;;10.13;8.20;;;9.70;52.80;;;;;;4342845;32;20135;-36
2021/04/01 14:24:39;;;;;;;12.33;8.17;;;9.70;52.80;;;;;;4341453;33;20523;-38
2021/04/01 14:27:12;;;;;;;13.77;8.50;;;9.70;52.90;;;;;;4342709;32;20075;-38
2021/04/01 14:29:39;;;;;;;12.13;7.43;;;9.70;52.90;;;;;;4341560;33;20069;-38
2021/04/01 14:32:07;;;;;;;12.70;8.90;;;9.60;53.00;;;;;;4342854;32;20083;-37
2021/04/01 14:34:34;;;;;;;12.90;9.07;;;9.60;52.90;;;;;;4342774;32;20058;-38
2021/04/01 14:37:03;;;;;;;12.27;8.63;;;9.60;52.90;;;;;;4342698;33;20058;-39
2021/04/01 14:39:31;;;;;;;17.90;8.47;;;9.60;52.90;;;;;;4341289;33;20097;-37
2021/04/01 14:42:06;;;;;;;12.05;8.13;;;9.60;53.10;;;;;;4342935;33;20083;-38
2021/04/01 14:44:33;;;;;;;15.93;9.52;;;9.50;53.00;;;;;;4342694;33;20144;-37
2021/04/01 14:47:00;;;;;;;10.55;8.05;;;9.50;53.00;;;;;;4344149;32;20085;-37
2021/04/01 14:49:27;;;;;;;13.18;7.62;;;9.50;53.20;;;;;;4345109;33;20526;-37
2021/04/01 14:51:53;;;;;;;10.50;7.67;;;9.50;53.30;;;;;;4345202;33;20530;-38
2021/04/01 14:54:26;;;;;;;9.93;6.93;;;9.50;53.40;;;;;;4345310;33;20058;-37
2021/04/01 14:56:55;;;;;;;9.23;6.73;;;9.40;53.40;;;;;;4345162;33;20149;-39
2021/04/01 14:59:29;;;;;;;12.48;9.20;;;9.50;53.30;;;;;;4345806;33;20195;-39